Aérodrome :
LOGIN :

S'inscrire | Disclaimer

   EN    FR    IT 

 










Légende :    VFR   VFR Marginal   IFR   IFR Intensif   IFR Très Intensif
Visi : 
Plafond : 
>= 8 km
>= 3000ft
5 à 8 km
1000 à 3000 ft
1500m à 5 km
500 à 1000 ft
800 à 1500m
200 à 500 ft
< 800m
< 200 ft
Symboles :   Orages  Brouillard  Fortes neiges  Fortes précipitations  Vent > 20 kt
SIGMETs :   Divers  Orages  Givrage  Turbulence  Onde Orograph.  Cendres Volcan.







- Altitude de l'aérodrome : 25 ft
- Code IATA : TPS


LICT - Vincenzo Florio Trapani

DERNIER METAR :
  • 202355Z 12005KT 9999 SCT030 06/05 Q1015

METARs EXPIRÉS :
  • 202255Z 12006KT CAVOK 06/05 Q1016
  • 202155Z 13005KT CAVOK 06/06 Q1016

TAF TAF LICT
Valide du 21 à 00h jusqu'au 21 à 09h UTC


202300Z 2100/2109 35015KT 9999 FEW025
BECMG 2100/2103 BKN020
TEMPO 2100/2105 33015G25KT
BECMG 2105/2108 33017G34KT
Pas de NOTAMs connus pour ce terrain.
2 SIGMETs publiés pour la FIR Roma (LIRR) :
 
Turbulence forte
LIRR SIGMET 11 VALID 202212/210200 LIIB
LIRR ROMA FIR SEV TURB FCST WI N4115 E00944 - N4013 E01051 - N3929 E01206 - N4032 E01342 - N4126 E01420 - N4254 E01307 - N4328 E01319 - N4344 E01116 - N4334 E01018 - N4308 E00944 - N4115 E00944 FL240/390 MOV SE NC=
Turbulence forte
LIRR SIGMET 10 VALID 202202/210200 LIIB
LIRR ROMA FIR SEV TURB FCST WI N4118 E00825 - N4101 E00803 - N3929 E00806 - N3854 E00936 - N3905 E01044 - N4010 E01117 - N4122 E01120 - N4235 E00947 - N4115 E00943 - N4118 E00825 SFC/FL100 STNR NC=



MET'MAP, la Météo Aéronautique d'un coup d'oeil ! - Copyright ORBIFLY Décembre 2007 - Disclaimer

ORBIFLY MET'MAP TEAM :

Programmation & Développement : Alexandra Zaïnal
Conception & Développement : Baudouin d'Aumeries
Co-Programmation & Développement : Marc-Olivier Méhu
Soutien technique & logistique : Manuel Goepfert

Contact : metmap@orbifly.com




SOURCES & CREDITS :

   NOAA